EWG7HL EDDS-GCTS
Flight info
| Callsign | EWG7HL |
|---|---|
| Flight time | N/A |
| Altitude | 31000 |
| Route | ROTWE7H/07 ROTWE Y126 TUBLO N850 NATOR DCT LUTIX DCT BENOT/N0454F350 DCT NEMOS DCT NINTU DCT MEBAK DCT REPSI DCT LERGA DCT MINSO DCT NARAK DCT AGN DCT LATEK DCT PPN DCT MIRPO DCT DGO DCT NEA DCT ARDID/N0458F370 DCT DIGAL DCT DEKKI DCT ESP DCT LIGRA DCT BEXAL UN866 KONBA |
| Aircraft | A319/M-SDE3FGHIRWY/LB1 |
Departure
| Time | 2026-05-04 15:35 |
|---|---|
| Airport | Stuttgart Airport (EDDS) |
Arrival
| Time | N/A |
|---|---|
| Airport | Tenerife Sur Airport (GCTS) |
| Time | Latitude | Longitude | Altitude | Speed | Heading |
|---|---|---|---|---|---|
| 2026-05-04 15:00 | 48.68917 | 9.19586 | 1286 ft | 0 kts | 342° |
| 2026-05-04 15:28 | 48.68917 | 9.19587 | 1285 ft | 1 kts | 342° |
| 2026-05-04 15:28 | 48.68896 | 9.19595 | 1287 ft | 4 kts | 354° |
| 2026-05-04 15:28 | 48.68847 | 9.19577 | 1290 ft | 4 kts | 50° |
| 2026-05-04 15:29 | 48.68839 | 9.19558 | 1285 ft | 0 kts | 74° |
| 2026-05-04 15:31 | 48.68839 | 9.19560 | 1285 ft | 1 kts | 74° |
| 2026-05-04 15:31 | 48.68847 | 9.19603 | 1287 ft | 7 kts | 73° |
| 2026-05-04 15:32 | 48.68830 | 9.19905 | 1289 ft | 11 kts | 147° |
| 2026-05-04 15:32 | 48.68698 | 9.19980 | 1287 ft | 9 kts | 165° |
| 2026-05-04 15:33 | 48.68583 | 9.20050 | 1285 ft | 9 kts | 101° |
| 2026-05-04 15:34 | 48.68603 | 9.20169 | 1287 ft | 33 kts | 72° |
| 2026-05-04 15:34 | 48.68725 | 9.20804 | 1286 ft | 99 kts | 74° |
| 2026-05-04 15:34 | 48.69287 | 9.23879 | 1814 ft | 164 kts | 74° |
| 2026-05-04 15:35 | 48.69886 | 9.27263 | 2737 ft | 181 kts | 71° |
| 2026-05-04 15:35 | 48.70008 | 9.27874 | 2798 ft | 188 kts | 71° |
| 2026-05-04 15:36 | 48.71151 | 9.35733 | 4132 ft | 248 kts | 105° |
| 2026-05-04 15:36 | 48.70320 | 9.38044 | 4888 ft | 255 kts | 131° |
| 2026-05-04 15:36 | 48.68868 | 9.39543 | 5776 ft | 253 kts | 159° |
| 2026-05-04 15:37 | 48.67177 | 9.40148 | 6725 ft | 249 kts | 176° |
| 2026-05-04 15:37 | 48.65460 | 9.40003 | 7586 ft | 248 kts | 192° |
| 2026-05-04 15:37 | 48.63845 | 9.39099 | 8348 ft | 250 kts | 210° |
| 2026-05-04 15:37 | 48.62480 | 9.37442 | 8863 ft | 265 kts | 230° |
| 2026-05-04 15:38 | 48.61426 | 9.35079 | 9417 ft | 275 kts | 236° |
| 2026-05-04 15:38 | 48.60374 | 9.32597 | 10142 ft | 279 kts | 236° |
| 2026-05-04 15:38 | 48.59301 | 9.30074 | 10382 ft | 300 kts | 236° |
| 2026-05-04 15:38 | 48.58128 | 9.27324 | 10517 ft | 323 kts | 236° |